Time;durP1;ratioP1;P1;durP2;ratioP2;P2;SDS_P1;SDS_P2;PMS_P1;PMS_P2;Temp;Humidity;BMP_temperature;BMP_pressure;BME280_temperature;BME280_humidity;BME280_pressure;Samples;Min_cycle;Max_cycle;Signal;HPM_P1;HPM_P2
2021/04/11 00:00:12;;;;;;;4.70;3.78;;;12.10;96.70;;;;;;4974096;28;20156;-78
2021/04/11 00:02:40;;;;;;;8.80;4.57;;;12.10;96.70;;;;;;4991446;28;20499;-77
2021/04/11 00:05:11;;;;;;;6.32;4.55;;;12.10;96.70;;;;;;4961817;28;20049;-77
2021/04/11 00:07:39;;;;;;;4.57;4.03;;;12.10;96.70;;;;;;4993579;28;20124;-78
2021/04/11 00:10:09;;;;;;;5.60;4.40;;;12.00;96.70;;;;;;4986047;28;20064;-77
2021/04/11 00:12:37;;;;;;;5.00;4.10;;;12.00;96.70;;;;;;4996117;28;20120;-77
2021/04/11 00:15:08;;;;;;;6.18;4.72;;;12.10;96.70;;;;;;4972129;28;20057;-77
2021/04/11 00:17:36;;;;;;;7.13;4.85;;;12.10;96.70;;;;;;4993991;28;20054;-77
2021/04/11 00:20:05;;;;;;;5.85;5.20;;;12.10;96.70;;;;;;4987342;28;20065;-77
2021/04/11 00:22:33;;;;;;;6.18;5.50;;;12.10;96.70;;;;;;4961759;28;20042;-77
2021/04/11 00:25:01;;;;;;;6.60;4.80;;;12.10;96.70;;;;;;4972813;28;20137;-78
2021/04/11 00:27:28;;;;;;;6.00;4.82;;;12.10;96.70;;;;;;4985093;28;20045;-77
2021/04/11 00:29:57;;;;;;;7.22;4.70;;;12.10;96.70;;;;;;4973227;28;20046;-77
2021/04/11 00:32:25;;;;;;;5.50;4.88;;;12.10;96.70;;;;;;4978200;28;20419;-77
2021/04/11 00:34:53;;;;;;;5.65;4.32;;;12.10;96.70;;;;;;4979104;28;20415;-77
2021/04/11 00:37:27;;;;;;;6.28;4.47;;;12.10;96.70;;;;;;4974817;28;20144;-77
2021/04/11 00:39:55;;;;;;;5.57;4.10;;;12.20;96.70;;;;;;4967455;28;20057;-79
2021/04/11 00:42:29;;;;;;;5.63;4.50;;;12.20;96.70;;;;;;4964956;28;20035;-79
2021/04/11 00:45:16;;;;;;;3.88;3.20;;;12.20;96.70;;;;;;4976385;28;20133;-79
2021/04/11 00:47:45;;;;;;;5.60;4.03;;;12.10;96.70;;;;;;4976822;28;20407;-79
2021/04/11 00:50:14;;;;;;;3.63;3.15;;;12.10;96.70;;;;;;4978477;28;20492;-79
2021/04/11 00:52:44;;;;;;;4.75;3.40;;;12.10;96.70;;;;;;4952962;28;20501;-77
2021/04/11 00:58:41;;;;;;;4.45;3.47;;;12.10;96.70;;;;;;4958315;28;20101;-79
2021/04/11 01:01:32;;;;;;;3.72;3.20;;;12.00;96.70;;;;;;4960478;28;20050;-79
2021/04/11 01:04:01;;;;;;;4.18;3.30;;;12.00;96.70;;;;;;4959964;28;20053;-79
2021/04/11 01:06:52;;;;;;;4.95;2.63;;;12.00;96.70;;;;;;4951024;28;20141;-79
2021/04/11 01:09:24;;;;;;;3.95;2.83;;;12.00;96.70;;;;;;4972189;28;20046;-79
2021/04/11 01:11:55;;;;;;;3.88;2.35;;;12.00;96.70;;;;;;4946729;28;20042;-79
2021/04/11 01:14:25;;;;;;;3.20;2.63;;;12.00;96.70;;;;;;4962767;28;20097;-80
2021/04/11 01:16:55;;;;;;;3.78;2.80;;;11.90;96.70;;;;;;4963765;28;20062;-80
2021/04/11 01:19:29;;;;;;;4.15;2.80;;;11.90;96.70;;;;;;4965026;28;20104;-79
2021/04/11 01:22:17;;;;;;;3.58;2.97;;;11.90;96.70;;;;;;4954445;28;20065;-79
2021/04/11 01:24:50;;;;;;;2.75;2.45;;;11.80;96.70;;;;;;4943595;28;20057;-79
2021/04/11 01:27:22;;;;;;;6.18;2.40;;;11.80;96.70;;;;;;4951444;28;20126;-79
2021/04/11 01:29:54;;;;;;;4.70;2.50;;;11.80;96.70;;;;;;4964230;28;20069;-80
2021/04/11 01:32:25;;;;;;;3.80;2.50;;;11.80;96.70;;;;;;4966942;28;20072;-79
2021/04/11 01:34:56;;;;;;;3.20;2.13;;;11.80;96.70;;;;;;4965388;28;20101;-79
2021/04/11 01:37:27;;;;;;;3.10;2.10;;;11.80;96.70;;;;;;4961174;28;20121;-79
2021/04/11 01:39:59;;;;;;;3.15;2.22;;;11.80;96.70;;;;;;4966316;28;20435;-79
2021/04/11 01:42:28;;;;;;;5.85;2.58;;;11.80;96.70;;;;;;4948422;28;20443;-79
2021/04/11 01:44:58;;;;;;;3.95;2.10;;;11.90;96.70;;;;;;4952653;28;20046;-79
2021/04/11 01:47:28;;;;;;;3.88;2.35;;;11.90;96.70;;;;;;4962632;28;20197;-79
2021/04/11 01:49:58;;;;;;;2.83;1.90;;;11.90;96.70;;;;;;4962932;28;20046;-79
2021/04/11 01:52:32;;;;;;;4.85;2.10;;;12.00;96.70;;;;;;4965009;28;20067;-79
2021/04/11 01:55:04;;;;;;;2.92;1.90;;;12.00;96.70;;;;;;4966937;28;20047;-78
2021/04/11 01:57:38;;;;;;;2.70;1.90;;;12.00;96.70;;;;;;4971019;28;20084;-79
2021/04/11 02:00:21;;;;;;;3.05;1.63;;;11.90;96.70;;;;;;4964369;28;20101;-79
2021/04/11 02:02:56;;;;;;;1.92;1.33;;;11.90;96.70;;;;;;4965198;28;20058;-79
2021/04/11 02:05:27;;;;;;;2.40;1.67;;;11.90;96.70;;;;;;4958444;28;20603;-79
2021/04/11 02:07:57;;;;;;;3.35;1.58;;;11.90;96.70;;;;;;4945562;28;20054;-79
2021/04/11 02:10:38;;;;;;;4.32;1.60;;;11.90;96.70;;;;;;4974702;28;20516;-79
2021/04/11 02:13:16;;;;;;;3.15;1.67;;;11.90;96.70;;;;;;4964260;28;20042;-79
2021/04/11 02:15:49;;;;;;;3.30;1.95;;;11.80;96.70;;;;;;4960150;28;20535;-78
2021/04/11 02:18:21;;;;;;;4.90;1.85;;;11.80;96.70;;;;;;4965327;28;20045;-79
2021/04/11 02:20:55;;;;;;;2.60;1.40;;;11.90;96.70;;;;;;4956519;28;20053;-79
2021/04/11 02:23:26;;;;;;;3.15;1.52;;;11.90;96.70;;;;;;4974453;28;20050;-78
2021/04/11 02:25:58;;;;;;;3.33;1.90;;;11.90;96.70;;;;;;4948779;28;20238;-79
2021/04/11 02:28:30;;;;;;;2.53;1.58;;;11.90;96.70;;;;;;4953731;28;20047;-79
2021/04/11 02:31:19;;;;;;;2.08;1.70;;;11.90;96.70;;;;;;4965405;28;20050;-78
2021/04/11 02:34:01;;;;;;;2.40;2.08;;;11.90;96.70;;;;;;4959845;28;20049;-79
2021/04/11 02:36:37;;;;;;;4.60;1.85;;;11.90;96.70;;;;;;4971590;28;20042;-78
2021/04/11 02:39:11;;;;;;;2.78;1.63;;;11.90;96.70;;;;;;4971687;28;20501;-78
2021/04/11 02:41:42;;;;;;;2.28;1.42;;;11.90;96.70;;;;;;4979832;28;20050;-79
2021/04/11 02:44:16;;;;;;;2.55;1.38;;;11.90;96.70;;;;;;4977602;28;20499;-79
2021/04/11 02:46:46;;;;;;;3.08;1.80;;;11.90;96.70;;;;;;4978455;28;20469;-79
2021/04/11 02:49:20;;;;;;;2.63;1.48;;;11.90;96.70;;;;;;4994547;28;20092;-79
2021/04/11 02:51:51;;;;;;;2.88;1.98;;;11.90;96.70;;;;;;4992381;28;20651;-79
2021/04/11 02:54:24;;;;;;;3.28;2.00;;;11.90;96.70;;;;;;4972333;28;20593;-78
2021/04/11 02:57:05;;;;;;;3.75;1.60;;;12.00;96.70;;;;;;4985780;28;20042;-78
2021/04/11 02:59:38;;;;;;;5.32;1.70;;;12.00;96.70;;;;;;4994770;28;20122;-79
2021/04/11 03:02:09;;;;;;;3.00;1.50;;;12.00;96.70;;;;;;4963190;28;20554;-79
2021/04/11 03:04:51;;;;;;;4.05;1.60;;;12.00;96.70;;;;;;4973052;28;20571;-79
2021/04/11 03:07:26;;;;;;;4.45;1.23;;;12.00;96.70;;;;;;4973661;28;20637;-79
2021/04/11 03:10:00;;;;;;;3.10;1.52;;;12.00;96.70;;;;;;4981390;28;20454;-79
2021/04/11 03:12:38;;;;;;;2.83;1.33;;;12.00;96.70;;;;;;4970820;28;20385;-79
2021/04/11 03:15:12;;;;;;;2.50;1.40;;;12.00;96.70;;;;;;4963334;28;20049;-79
2021/04/11 03:17:44;;;;;;;3.47;1.77;;;12.00;96.70;;;;;;4977361;28;20423;-79
2021/04/11 03:20:19;;;;;;;3.35;1.55;;;12.00;96.70;;;;;;4977509;28;20141;-78
2021/04/11 03:22:58;;;;;;;2.35;1.17;;;12.00;96.70;;;;;;4973581;28;20142;-78
2021/04/11 03:25:29;;;;;;;1.95;1.40;;;12.10;96.70;;;;;;4976638;28;20046;-78
2021/04/11 03:28:06;;;;;;;3.75;1.35;;;12.10;96.70;;;;;;4976768;28;20069;-78
2021/04/11 03:30:40;;;;;;;4.38;1.70;;;12.10;96.70;;;;;;4995373;28;20113;-79
2021/04/11 03:33:13;;;;;;;2.90;1.60;;;12.10;96.70;;;;;;4993120;28;20042;-79
2021/04/11 03:35:46;;;;;;;2.60;1.38;;;12.10;96.70;;;;;;4990163;28;20034;-78
2021/04/11 03:38:20;;;;;;;2.88;1.42;;;12.00;96.70;;;;;;4975249;28;20054;-78
2021/04/11 03:40:52;;;;;;;2.60;1.58;;;12.00;96.70;;;;;;4974722;28;20057;-79
2021/04/11 03:43:28;;;;;;;2.83;1.27;;;12.10;96.70;;;;;;4967369;28;20045;-78
2021/04/11 03:46:06;;;;;;;4.50;1.70;;;12.00;96.70;;;;;;4978179;28;20038;-78
2021/04/11 03:48:43;;;;;;;4.22;1.80;;;12.10;96.70;;;;;;4965996;28;20053;-78
2021/04/11 03:51:21;;;;;;;3.00;1.40;;;12.10;96.70;;;;;;4962837;28;20550;-78
2021/04/11 03:53:55;;;;;;;4.63;1.75;;;12.10;96.70;;;;;;4988531;28;20122;-79
2021/04/11 03:56:34;;;;;;;4.43;1.73;;;12.10;96.70;;;;;;4962598;28;20042;-78
2021/04/11 03:59:06;;;;;;;3.22;1.95;;;12.00;96.70;;;;;;4989875;28;20049;-78
2021/04/11 04:01:46;;;;;;;2.53;1.60;;;12.00;96.70;;;;;;4966323;28;20522;-78
2021/04/11 04:04:18;;;;;;;3.40;1.83;;;12.00;96.70;;;;;;4978282;28;20042;-79
2021/04/11 04:07:14;;;;;;;3.08;1.50;;;11.90;96.70;;;;;;4963334;28;20640;-79
2021/04/11 04:10:02;;;;;;;3.88;2.35;;;11.90;96.70;;;;;;4976494;28;20078;-78
2021/04/11 04:13:16;;;;;;;4.57;1.73;;;12.00;96.70;;;;;;4997154;28;20209;-78
2021/04/11 04:16:12;;;;;;;2.30;1.70;;;12.00;96.70;;;;;;4969011;28;20043;-79
2021/04/11 04:19:12;;;;;;;2.40;1.75;;;12.00;96.70;;;;;;4981416;28;20466;-78
2021/04/11 04:22:05;;;;;;;2.03;1.73;;;12.00;96.70;;;;;;4981296;28;20084;-78
2021/04/11 04:24:57;;;;;;;3.25;1.67;;;12.00;96.70;;;;;;4986200;28;20046;-78
2021/04/11 04:28:02;;;;;;;4.43;1.90;;;12.00;96.70;;;;;;4978885;28;20034;-78
2021/04/11 04:30:40;;;;;;;5.60;1.60;;;12.00;96.70;;;;;;4976754;28;20483;-78
2021/04/11 04:33:22;;;;;;;3.60;1.85;;;11.90;96.70;;;;;;4985779;28;20029;-79
2021/04/11 04:36:08;;;;;;;3.95;2.13;;;11.90;96.70;;;;;;4982923;28;20042;-78
2021/04/11 04:38:51;;;;;;;3.30;1.60;;;11.90;96.70;;;;;;4977366;28;20054;-78
2021/04/11 04:41:32;;;;;;;2.80;1.70;;;12.00;96.70;;;;;;4995092;28;20471;-78
2021/04/11 04:44:11;;;;;;;5.00;1.88;;;12.00;96.70;;;;;;4976893;28;20141;-78
2021/04/11 04:46:54;;;;;;;4.80;1.92;;;12.00;96.70;;;;;;4967075;28;20174;-78
2021/04/11 04:49:32;;;;;;;4.32;2.17;;;12.00;96.70;;;;;;4976478;28;20050;-78
2021/04/11 04:52:07;;;;;;;3.13;1.77;;;12.00;96.70;;;;;;4980542;28;20052;-78
2021/04/11 04:54:41;;;;;;;4.43;1.90;;;12.00;96.70;;;;;;4978734;28;20575;-78
2021/04/11 04:57:16;;;;;;;2.85;1.95;;;12.00;96.70;;;;;;4985213;28;20060;-78
2021/04/11 05:00:00;;;;;;;2.78;1.70;;;12.00;96.70;;;;;;4959799;28;20057;-78
2021/04/11 05:02:43;;;;;;;2.90;1.60;;;11.90;96.70;;;;;;4964563;28;20065;-79
2021/04/11 05:05:17;;;;;;;3.58;1.95;;;12.00;96.70;;;;;;4976333;28;20078;-79
2021/04/11 05:08:34;;;;;;;3.70;1.70;;;12.00;96.70;;;;;;4977359;28;20042;-78
2021/04/11 05:11:09;;;;;;;3.60;1.80;;;11.90;96.70;;;;;;4963604;28;20057;-79
2021/04/11 05:13:45;;;;;;;3.63;1.55;;;12.00;96.70;;;;;;4977298;28;20407;-78
2021/04/11 05:16:20;;;;;;;4.00;1.73;;;11.90;96.70;;;;;;4982716;28;20136;-78
2021/04/11 05:18:57;;;;;;;2.22;1.40;;;12.00;96.70;;;;;;4976455;28;20133;-78
2021/04/11 05:21:40;;;;;;;4.30;2.10;;;11.90;96.70;;;;;;4981741;28;20466;-79
2021/04/11 05:24:15;;;;;;;5.78;2.17;;;12.00;96.70;;;;;;4982926;28;20037;-78
2021/04/11 05:26:48;;;;;;;2.65;1.80;;;12.00;96.70;;;;;;4966654;28;20050;-78
2021/04/11 05:29:28;;;;;;;2.75;1.83;;;12.00;96.70;;;;;;4975546;28;20030;-78
2021/04/11 05:31:56;;;;;;;2.72;1.60;;;11.90;96.70;;;;;;4973289;28;20065;-79
2021/04/11 05:34:27;;;;;;;2.53;1.60;;;11.90;96.70;;;;;;4980358;28;20150;-78
2021/04/11 05:37:02;;;;;;;4.30;1.73;;;12.00;96.70;;;;;;4996938;28;20041;-78
2021/04/11 05:39:43;;;;;;;3.53;1.98;;;12.00;96.70;;;;;;4964181;28;20054;-78
2021/04/11 05:42:17;;;;;;;2.88;1.88;;;12.00;96.70;;;;;;4992276;28;20539;-78
2021/04/11 05:44:52;;;;;;;3.72;2.10;;;12.00;96.70;;;;;;4973865;28;20046;-78
2021/04/11 05:47:26;;;;;;;2.85;1.63;;;12.00;96.70;;;;;;4980223;28;20042;-78
2021/04/11 05:50:00;;;;;;;4.15;1.67;;;12.00;96.70;;;;;;4980615;28;20284;-78
2021/04/11 05:52:32;;;;;;;3.38;1.50;;;12.00;96.70;;;;;;4976344;28;20115;-78
2021/04/11 05:55:04;;;;;;;2.00;1.45;;;12.00;96.70;;;;;;4996647;28;20400;-78
2021/04/11 05:57:35;;;;;;;2.88;1.65;;;12.00;96.70;;;;;;4996209;28;20040;-78
2021/04/11 06:00:06;;;;;;;2.83;1.45;;;12.00;96.70;;;;;;4985813;28;20609;-78
2021/04/11 06:02:42;;;;;;;2.88;1.17;;;12.00;96.70;;;;;;4979864;28;20561;-78
2021/04/11 06:05:16;;;;;;;5.60;2.08;;;12.00;96.70;;;;;;4998644;28;20042;-78
2021/04/11 06:07:51;;;;;;;2.53;1.13;;;12.10;96.70;;;;;;4994169;28;20038;-79
2021/04/11 06:10:26;;;;;;;2.05;1.15;;;12.10;96.70;;;;;;4976216;28;20459;-78
2021/04/11 06:12:58;;;;;;;3.38;1.42;;;12.20;96.70;;;;;;4965778;28;20151;-78
2021/04/11 06:15:28;;;;;;;4.32;1.75;;;12.20;96.70;;;;;;4976291;28;20133;-78
2021/04/11 06:17:57;;;;;;;2.63;1.30;;;12.20;96.70;;;;;;4987359;28;20053;-78
2021/04/11 06:20:26;;;;;;;4.15;1.48;;;12.20;96.70;;;;;;4955071;28;20042;-78
2021/04/11 06:23:04;;;;;;;3.47;1.30;;;12.20;96.70;;;;;;4978356;28;20129;-78
2021/04/11 06:25:37;;;;;;;4.05;1.20;;;12.20;96.70;;;;;;4978111;28;20053;-78
2021/04/11 06:28:12;;;;;;;3.75;1.45;;;12.20;96.70;;;;;;4998012;28;20355;-78
2021/04/11 06:30:50;;;;;;;2.95;1.73;;;12.20;96.70;;;;;;4978194;28;20450;-78
2021/04/11 06:33:24;;;;;;;4.47;1.60;;;12.20;96.70;;;;;;4967998;28;20046;-79
2021/04/11 06:35:56;;;;;;;3.22;1.83;;;12.20;96.70;;;;;;4992463;28;20042;-78
2021/04/11 06:38:29;;;;;;;2.95;1.90;;;12.10;96.70;;;;;;4983641;28;20534;-78
2021/04/11 06:41:25;;;;;;;5.25;2.03;;;12.20;96.70;;;;;;4976704;28;20046;-78
2021/04/11 06:44:19;;;;;;;3.25;1.90;;;12.20;96.70;;;;;;4993148;28;20087;-79
2021/04/11 06:47:06;;;;;;;3.75;1.50;;;12.20;96.70;;;;;;4977730;28;20515;-77
2021/04/11 06:49:46;;;;;;;;;;;12.20;96.70;;;;;;4968945;28;20500;-79
2021/04/11 06:52:41;;;;;;;4.85;1.95;;;12.30;96.70;;;;;;4968527;28;19926;-79
2021/04/11 06:55:40;;;;;;;3.22;1.60;;;12.40;96.70;;;;;;4974619;28;20049;-78
2021/04/11 06:58:20;;;;;;;3.70;1.60;;;12.40;96.70;;;;;;4994485;28;20070;-79
2021/04/11 07:01:08;;;;;;;4.07;1.55;;;12.40;96.70;;;;;;4979650;28;20042;-78
2021/04/11 07:04:16;;;;;;;3.38;1.60;;;12.40;96.70;;;;;;4972232;28;20567;-78
2021/04/11 07:07:21;;;;;;;3.60;1.65;;;12.50;96.70;;;;;;4956120;28;20177;-78
2021/04/11 07:09:51;;;;;;;4.82;2.53;;;12.50;96.70;;;;;;4961789;28;20042;-78
2021/04/11 07:13:05;;;;;;;5.38;2.55;;;12.50;96.70;;;;;;4970233;28;20056;-79
2021/04/11 07:15:54;;;;;;;4.60;2.78;;;12.50;96.70;;;;;;4992553;28;20041;-78
2021/04/11 07:19:04;;;;;;;4.93;2.80;;;12.60;96.70;;;;;;4963387;28;20038;-79
2021/04/11 07:22:06;;;;;;;5.40;2.67;;;12.60;96.70;;;;;;4967185;28;20061;-80
2021/04/11 07:25:13;;;;;;;4.82;2.67;;;12.70;96.70;;;;;;4974009;28;20558;-78
2021/04/11 07:28:09;;;;;;;5.20;2.70;;;12.70;96.70;;;;;;4990851;28;20132;-80
2021/04/11 07:30:46;;;;;;;4.80;2.40;;;12.70;96.70;;;;;;4987181;28;20597;-77
2021/04/11 07:33:38;;;;;;;3.50;2.55;;;12.70;96.70;;;;;;4985473;28;20038;-78
2021/04/11 07:36:28;;;;;;;4.00;2.92;;;12.70;96.70;;;;;;4985338;28;20070;-78
2021/04/11 07:39:15;;;;;;;5.60;3.17;;;12.70;96.70;;;;;;4962811;28;20131;-77
2021/04/11 07:42:22;;;;;;;8.75;4.82;;;12.70;96.70;;;;;;4978378;28;20053;-78
2021/04/11 07:45:06;;;;;;;8.43;3.92;;;12.70;96.70;;;;;;4946052;28;20143;-78
2021/04/11 07:48:03;;;;;;;6.57;3.65;;;12.70;96.70;;;;;;4976477;28;20058;-76
2021/04/11 07:50:47;;;;;;;7.50;3.70;;;12.70;96.70;;;;;;4979704;28;20049;-76
2021/04/11 07:53:32;;;;;;;4.70;3.03;;;12.70;96.70;;;;;;4978888;28;20722;-75
2021/04/11 07:56:13;;;;;;;4.32;3.10;;;12.70;96.70;;;;;;4988786;28;20342;-77
2021/04/11 07:59:06;;;;;;;5.45;3.20;;;12.70;96.70;;;;;;4973387;28;20042;-76
2021/04/11 08:02:09;;;;;;;5.47;3.22;;;12.70;96.70;;;;;;4986861;28;20046;-76
2021/04/11 08:05:06;;;;;;;5.20;2.92;;;12.70;96.70;;;;;;4993687;28;20039;-75
2021/04/11 08:07:55;;;;;;;4.68;3.42;;;12.70;96.70;;;;;;4950171;28;20412;-75
2021/04/11 08:10:45;;;;;;;3.80;2.80;;;12.80;96.70;;;;;;4973768;28;20535;-76
2021/04/11 08:13:43;;;;;;;7.10;2.90;;;12.80;96.70;;;;;;4981224;28;20051;-76
2021/04/11 08:16:30;;;;;;;3.97;2.88;;;12.90;96.70;;;;;;4948729;28;20042;-77
2021/04/11 08:19:26;;;;;;;4.95;2.67;;;12.90;96.70;;;;;;4979496;28;20026;-76
2021/04/11 08:22:02;;;;;;;2.88;2.58;;;12.90;96.70;;;;;;4972029;28;20050;-76
2021/04/11 08:25:02;;;;;;;4.03;3.08;;;13.00;96.70;;;;;;4978442;28;20045;-75
2021/04/11 08:28:08;;;;;;;5.28;2.92;;;13.00;96.70;;;;;;4976047;28;20100;-76
2021/04/11 08:30:57;;;;;;;4.30;2.80;;;13.10;96.70;;;;;;4994228;28;20070;-75
2021/04/11 08:34:03;;;;;;;6.00;2.60;;;13.10;96.70;;;;;;4976959;28;20161;-76
2021/04/11 08:36:58;;;;;;;2.95;2.35;;;13.20;96.70;;;;;;4975282;28;20108;-75
2021/04/11 08:39:45;;;;;;;4.65;2.75;;;13.20;96.70;;;;;;4987579;28;20386;-76
2021/04/11 08:42:38;;;;;;;3.00;2.63;;;13.20;96.70;;;;;;4990420;28;20093;-76
2021/04/11 08:45:23;;;;;;;5.15;2.70;;;13.20;96.70;;;;;;4991966;28;20519;-76
2021/04/11 08:48:06;;;;;;;4.78;2.75;;;13.20;96.70;;;;;;4969259;28;20530;-75
2021/04/11 08:50:41;;;;;;;5.70;2.80;;;13.30;96.70;;;;;;4965762;28;20148;-76
2021/04/11 08:53:19;;;;;;;4.72;3.65;;;13.30;96.70;;;;;;4971858;28;20137;-76
2021/04/11 08:55:52;;;;;;;4.90;3.47;;;13.30;96.70;;;;;;4981419;28;20073;-77
2021/04/11 08:58:32;;;;;;;4.43;3.70;;;13.30;96.70;;;;;;4987016;28;20132;-80
2021/04/11 09:01:21;;;;;;;4.70;3.28;;;13.30;96.70;;;;;;4978807;28;20413;-77
2021/04/11 09:04:07;;;;;;;8.02;3.63;;;13.40;96.70;;;;;;4981877;28;20053;-78
2021/04/11 09:06:48;;;;;;;3.75;2.25;;;13.50;96.70;;;;;;4994843;28;20346;-78
2021/04/11 09:09:27;;;;;;;4.22;2.42;;;13.50;96.70;;;;;;4978831;28;20052;-78
2021/04/11 09:12:05;;;;;;;6.10;2.67;;;13.50;96.70;;;;;;4991952;28;20131;-78
2021/04/11 09:14:57;;;;;;;5.50;2.70;;;13.50;96.70;;;;;;4991428;28;20491;-78
2021/04/11 09:17:44;;;;;;;9.85;4.00;;;13.60;96.70;;;;;;4981411;28;20054;-78
2021/04/11 09:20:20;;;;;;;6.63;3.83;;;13.60;96.70;;;;;;4966158;28;20125;-77
2021/04/11 09:23:02;;;;;;;5.88;2.20;;;13.70;96.70;;;;;;4995590;28;20077;-78
2021/04/11 09:25:33;;;;;;;9.40;3.38;;;13.70;96.70;;;;;;4966375;28;20054;-77
2021/04/11 09:28:40;;;;;;;8.07;3.13;;;13.80;96.70;;;;;;4975017;28;20042;-77
2021/04/11 09:31:52;;;;;;;8.85;3.60;;;13.90;96.70;;;;;;4981497;28;20085;-78
2021/04/11 09:34:42;;;;;;;7.55;2.78;;;14.00;96.70;;;;;;4965924;28;20238;-77
2021/04/11 09:37:28;;;;;;;9.15;3.83;;;14.00;96.70;;;;;;4990568;28;20046;-83
2021/04/11 09:40:14;;;;;;;8.55;2.80;;;14.20;96.70;;;;;;4963560;28;20093;-77
2021/04/11 09:43:20;;;;;;;11.02;3.85;;;14.30;96.70;;;;;;4961894;28;20046;-77
2021/04/11 09:46:13;;;;;;;10.98;3.95;;;14.40;96.70;;;;;;4905435;28;20112;-76
2021/04/11 09:49:22;;;;;;;10.52;3.60;;;14.60;96.70;;;;;;4975219;28;20048;-77
2021/04/11 09:52:18;;;;;;;9.57;3.70;;;14.70;96.70;;;;;;4954772;28;20146;-76
2021/04/11 09:55:03;;;;;;;11.15;3.55;;;14.90;96.70;;;;;;4983715;28;20045;-77
2021/04/11 09:57:48;;;;;;;10.93;3.63;;;15.00;96.70;;;;;;4981528;28;20046;-77
2021/04/11 10:00:24;;;;;;;12.57;3.40;;;15.10;96.70;;;;;;4981373;28;20073;-77
2021/04/11 10:03:27;;;;;;;11.27;3.35;;;15.20;96.70;;;;;;4964325;28;20073;-77
2021/04/11 10:06:13;;;;;;;15.63;4.18;;;15.50;96.70;;;;;;4969655;28;20054;-77
2021/04/11 10:09:18;;;;;;;11.50;3.00;;;15.70;96.70;;;;;;4964820;28;20474;-77
2021/04/11 10:12:07;;;;;;;7.72;3.60;;;15.80;96.70;;;;;;4912631;28;20125;-77
2021/04/11 10:14:54;;;;;;;9.93;3.53;;;15.80;96.70;;;;;;4964468;28;20078;-77
2021/04/11 10:17:44;;;;;;;13.95;3.72;;;15.80;96.70;;;;;;4962179;28;20137;-77
2021/04/11 10:20:18;;;;;;;11.07;3.33;;;15.80;96.70;;;;;;4945213;28;20529;-76
2021/04/11 10:22:55;;;;;;;8.23;3.10;;;15.70;96.70;;;;;;4977446;28;20043;-76
2021/04/11 10:25:36;;;;;;;10.65;3.20;;;15.80;96.70;;;;;;4951731;28;20450;-76
2021/04/11 10:28:16;;;;;;;11.32;3.83;;;15.80;96.70;;;;;;4978912;28;20042;-76
2021/04/11 10:30:52;;;;;;;8.35;3.15;;;16.00;96.70;;;;;;4976883;28;20038;-77
2021/04/11 10:33:27;;;;;;;10.77;3.50;;;16.00;96.70;;;;;;4979089;28;20128;-77
2021/04/11 10:36:00;;;;;;;7.72;2.42;;;16.00;96.70;;;;;;4963798;28;20128;-77
2021/04/11 10:38:32;;;;;;;8.82;3.35;;;16.00;96.70;;;;;;4965303;28;20261;-77
2021/04/11 10:41:16;;;;;;;8.30;2.35;;;16.00;96.70;;;;;;4979438;28;20137;-76
2021/04/11 10:44:07;;;;;;;10.02;2.92;;;16.00;96.70;;;;;;4996826;28;20538;-76
2021/04/11 10:46:51;;;;;;;7.60;2.72;;;15.90;96.70;;;;;;4978794;28;20529;-76
2021/04/11 10:49:31;;;;;;;8.82;2.72;;;16.00;96.70;;;;;;4996522;28;20052;-76
2021/04/11 10:52:10;;;;;;;8.23;2.58;;;15.90;96.70;;;;;;4971270;28;20387;-76
2021/04/11 10:55:15;;;;;;;6.82;3.58;;;15.90;96.70;;;;;;4978420;28;20041;-76
2021/04/11 10:58:15;;;;;;;9.15;2.78;;;15.90;96.70;;;;;;4987283;28;20058;-76
2021/04/11 11:00:54;;;;;;;10.07;2.85;;;15.90;96.70;;;;;;4961959;28;20038;-76
2021/04/11 11:03:54;;;;;;;7.55;2.63;;;15.90;96.70;;;;;;4972014;28;20519;-76
2021/04/11 11:06:34;;;;;;;8.85;2.97;;;16.10;96.70;;;;;;4940974;28;20054;-76
2021/04/11 11:09:25;;;;;;;10.45;3.45;;;16.20;96.70;;;;;;4976926;28;20042;-76
2021/04/11 11:12:07;;;;;;;12.52;3.10;;;16.10;96.70;;;;;;4987755;28;20137;-76
2021/04/11 11:15:17;;;;;;;10.88;3.92;;;16.00;96.70;;;;;;4977320;28;20123;-77
2021/04/11 11:18:10;;;;;;;8.70;3.78;;;16.00;96.70;;;;;;4931965;28;20050;-77
2021/04/11 11:20:49;;;;;;;10.75;3.60;;;16.00;96.70;;;;;;4993328;28;20060;-77
2021/04/11 11:23:52;;;;;;;14.65;5.63;;;15.90;96.70;;;;;;4991772;28;20046;-76
2021/04/11 11:26:52;;;;;;;19.67;9.55;;;15.80;96.70;;;;;;4909629;28;20046;-74
2021/04/11 11:30:03;;;;;;;14.88;8.00;;;15.80;96.70;;;;;;4978450;28;20127;-77
2021/04/11 11:32:36;;;;;;;11.70;5.25;;;15.90;96.70;;;;;;4971964;28;20042;-77
2021/04/11 11:35:07;;;;;;;15.07;5.43;;;15.80;96.70;;;;;;4993330;28;20092;-78
2021/04/11 11:38:00;;;;;;;16.55;4.82;;;15.90;96.70;;;;;;4979397;28;20045;-77
2021/04/11 11:40:37;;;;;;;15.07;6.18;;;15.80;96.70;;;;;;4991662;28;20050;-77
2021/04/11 11:43:23;;;;;;;17.50;6.90;;;15.80;96.70;;;;;;4989606;28;20512;-76
2021/04/11 11:46:05;;;;;;;21.17;8.10;;;15.80;96.70;;;;;;4980492;28;20314;-77
2021/04/11 11:48:57;;;;;;;17.05;7.90;;;15.80;96.70;;;;;;4963627;28;20500;-77
2021/04/11 11:51:35;;;;;;;13.55;5.60;;;15.70;96.70;;;;;;4974859;28;20077;-76
2021/04/11 11:54:10;;;;;;;17.17;5.28;;;15.60;96.70;;;;;;4964957;28;20535;-76
2021/04/11 11:56:42;;;;;;;18.45;7.57;;;15.60;96.70;;;;;;4991001;28;20476;-78
2021/04/11 11:59:22;;;;;;;13.95;5.35;;;15.50;96.70;;;;;;4975948;28;20133;-77
2021/04/11 12:01:53;;;;;;;13.57;5.85;;;15.50;96.70;;;;;;4989182;28;20048;-76
2021/04/11 12:04:55;;;;;;;14.48;6.82;;;15.50;96.70;;;;;;4979398;28;20113;-75
2021/04/11 12:07:31;;;;;;;16.10;7.60;;;15.50;96.70;;;;;;4955511;28;20079;-75
2021/04/11 12:10:14;;;;;;;22.58;14.45;;;15.60;96.70;;;;;;4979817;28;20057;-75
2021/04/11 12:12:52;;;;;;;14.10;5.38;;;15.50;96.70;;;;;;4990029;28;20558;-75
2021/04/11 12:15:27;;;;;;;14.35;5.30;;;15.50;96.70;;;;;;4979599;28;20065;-75
2021/04/11 12:18:03;;;;;;;17.27;5.60;;;15.60;96.70;;;;;;4961228;28;20069;-74
2021/04/11 12:20:40;;;;;;;12.70;6.05;;;15.50;96.70;;;;;;4994234;28;20053;-74
2021/04/11 12:23:13;;;;;;;18.48;6.72;;;15.50;96.70;;;;;;4989949;28;20038;-74
2021/04/11 12:25:43;;;;;;;14.73;5.88;;;15.50;96.70;;;;;;4994818;28;20054;-75
2021/04/11 12:28:14;;;;;;;22.23;8.07;;;15.50;96.70;;;;;;4971950;28;20075;-75
2021/04/11 12:30:43;;;;;;;24.17;11.63;;;15.60;96.70;;;;;;4981369;28;20057;-76
2021/04/11 12:33:24;;;;;;;22.60;11.05;;;15.60;96.70;;;;;;4982142;28;20058;-81
2021/04/11 12:36:02;;;;;;;15.98;7.18;;;15.60;96.70;;;;;;4990198;28;20042;-73
2021/04/11 12:38:38;;;;;;;33.05;19.52;;;15.60;96.70;;;;;;4993182;28;20060;-74
2021/04/11 12:41:12;;;;;;;24.70;13.32;;;15.60;96.70;;;;;;4973300;28;20426;-75
2021/04/11 12:43:48;;;;;;;27.58;16.35;;;15.60;96.70;;;;;;4992895;28;20033;-77
2021/04/11 12:46:25;;;;;;;28.33;12.50;;;15.50;96.70;;;;;;4966305;28;20407;-78
2021/04/11 12:49:02;;;;;;;22.70;10.52;;;15.50;96.70;;;;;;4960637;28;20070;-75
2021/04/11 12:51:38;;;;;;;23.98;8.55;;;15.60;96.70;;;;;;4978585;28;20039;-74
2021/04/11 12:54:13;;;;;;;24.70;6.80;;;15.60;96.70;;;;;;4977195;28;20043;-73
2021/04/11 12:56:45;;;;;;;22.95;7.97;;;15.70;96.70;;;;;;4981498;28;20091;-73
2021/04/11 12:59:20;;;;;;;19.30;7.43;;;15.80;96.70;;;;;;4986626;28;20399;-75
2021/04/11 13:01:51;;;;;;;16.50;7.35;;;15.80;96.70;;;;;;4979513;28;20034;-76
2021/04/11 13:04:26;;;;;;;20.75;8.15;;;15.80;96.70;;;;;;4969442;28;20140;-75
2021/04/11 13:07:00;;;;;;;14.95;5.60;;;15.70;96.70;;;;;;4980211;28;20046;-76
2021/04/11 13:09:51;;;;;;;14.20;5.03;;;15.70;96.70;;;;;;4961632;28;20128;-75
2021/04/11 13:12:32;;;;;;;19.77;6.40;;;15.70;96.70;;;;;;4965431;28;20046;-75
2021/04/11 13:15:06;;;;;;;20.15;5.97;;;15.70;96.70;;;;;;4983107;28;20041;-74
2021/04/11 13:17:41;;;;;;;22.75;9.52;;;15.70;96.70;;;;;;4992441;28;20061;-75
2021/04/11 13:20:17;;;;;;;14.05;4.47;;;15.70;96.70;;;;;;4976503;28;20049;-75
2021/04/11 13:22:54;;;;;;;15.40;4.82;;;15.60;96.70;;;;;;4984542;28;20058;-74
2021/04/11 13:25:32;;;;;;;9.27;4.17;;;15.70;96.70;;;;;;4978334;28;20050;-75
2021/04/11 13:28:07;;;;;;;18.17;4.82;;;15.70;96.70;;;;;;4976495;28;20328;-73
2021/04/11 13:30:42;;;;;;;15.18;4.90;;;15.80;96.70;;;;;;4978014;28;20062;-74
2021/04/11 13:33:17;;;;;;;19.38;5.35;;;15.90;96.70;;;;;;4976173;28;20058;-74
2021/04/11 13:35:54;;;;;;;16.40;5.15;;;15.90;96.70;;;;;;4979276;28;20050;-74
2021/04/11 13:38:25;;;;;;;12.23;4.63;;;15.90;96.70;;;;;;4982472;28;20711;-75
2021/04/11 13:41:08;;;;;;;15.23;5.50;;;15.90;96.70;;;;;;4978963;28;20046;-74
2021/04/11 13:43:51;;;;;;;12.38;4.88;;;15.90;96.70;;;;;;4993339;28;20052;-74
2021/04/11 13:46:32;;;;;;;14.48;4.68;;;15.90;96.70;;;;;;4978352;28;20119;-75
2021/04/11 13:49:08;;;;;;;15.50;4.63;;;16.00;96.70;;;;;;4994517;28;20042;-74
2021/04/11 13:51:48;;;;;;;14.48;5.97;;;16.00;96.70;;;;;;4994259;28;20041;-75
2021/04/11 13:54:23;;;;;;;13.73;5.13;;;16.00;96.70;;;;;;4993141;28;20121;-75
2021/04/11 13:57:26;;;;;;;18.80;5.82;;;16.00;96.70;;;;;;4999984;28;20038;-75